Portada
METAR-TAF:

METAR-TAF

Aeroports :

Aeroport de Cherif Al Idrissi

Al Hoceima, Marroc

latitud: 35-11N, longitud: 003-51W, altitud: 27 m

Observació

L'informe es va fer fa 10 hores i 42 minuts, a les 23:00 UTC
Vent 4 kt del Sud
Temperatura 19°C
Humitat 83%
Pressió 1014 hPa
Visibilitat 10 km o més
sense núvols per sota de 1500 mi sense presència de cumulonimbus.

METAR: GMTA 022300Z 18004KT CAVOK 19/16 Q1014 NOSIG

Hora: 10:42 (09:42 UTC)

Pronòstic

L'informe es va fer fa 10 hores i 42 minuts, a les 23:00 UTC
Pronòstic vàlid del 03 a les 00 UTC al 04 a les 06 UTC
Vent 4 kt del Sud
Visibilitat 10 km o més
sense núvols per sota de 1500 mi sense presència de cumulonimbus.

TAF: GMTA 022300Z 0300/0406 18004KT CAVOK

Observacions i pronòstics meteorològics de més de 4000 aeroports (METAR i TAF).

Les estacions disponibles són els punts grocs i vermells al mapa.

Posi el ratolí al punt desitjat per veure el nom de l'estació.

Feu clic per veure les observacions i els pronòstics meteorològics.

Per canviar el mapa: feu clic els botons verds amb una creu de color negre per apropar; al botó verd amb un guió per allunyar la imatge; o en les fletxes verdes per a mapes adjacents.


METAR-TAF: